Nett Lake, MN

12:54 AM CDT on August 29, 2016 (GMT -0500)
Orr Regional

Weather History for KORB - October, 2012

Change the Weather History Date:

Friday, October 26, 2012

  Actual Average Record
Temperature  
Mean Temperature 28 °F -  
Max Temperature 32 °F 43 °F 60 °F (2000)
Min Temperature 24 °F 28 °F 12 °F (1997)
Degree Days  
Heating Degree Days 37    
Moisture  
Dew Point 23 °F    
Average Humidity 77    
Maximum Humidity 87    
Minimum Humidity 64    
Precipitation  
Precipitation 0.00 in - - ()
Sea Level Pressure  
Sea Level Pressure 30.09 in    
Wind  
Wind Speed 11 mph (West)    
Max Wind Speed 17 mph    
Max Gust Speed 28 mph    
Visibility 10 miles    
Events Snow    
Averages and records for this station are not official NWS values.
T = Trace of Precipitation, MM = Missing Value Source: NWS Daily Summary

Daily Weather History Graph

Daily Weather History Graph

Search for Another Location

Airport or City:

Trip Planner

Search our weather history database for the weather conditions in past years. The results will help you decide how hot, cold, wet, or windy it might be!

Date:

Astronomy

Oct. 26, 2012 Rise Set
Actual Time 7:47 AM CDT 6:01 PM CDT
Civil Twilight 7:15 AM CDT 6:33 PM CDT
Nautical Twilight 6:39 AM CDT 7:10 PM CDT
Astronomical Twilight 6:03 AM CDT 7:46 PM CDT
Moon 4:27 PM CDT (10/26) 4:33 AM CDT (10/26)
Length of Visible Light 11h 18m
Length of Day
10h 13m
Waxing Gibbous, 91% of the Moon is Illuminated
Oct 26
Waxing Gibbous
Oct 29
Full
Nov 6
Last Quarter
Nov 13
New
Nov 20
First Quarter

Hourly Weather History & Observations

Time (CDT) Temp. Windchill Dew Point Humidity Pressure Visibility Wind Dir Wind Speed Gust Speed Precip Events Conditions
12:33 AM 32.0 °F 24.2 °F 28.4 °F 87% 29.88 in 7.0 mi West 9.2 mph - N/A   Overcast
12:53 AM 32.0 °F 23.0 °F 28.4 °F 87% 29.88 in 7.0 mi West 11.5 mph - N/A   Overcast
1:13 AM 32.0 °F 24.2 °F 28.4 °F 87% 29.89 in 5.0 mi West 9.2 mph - N/A   Mostly Cloudy
1:33 AM 32.0 °F 23.6 °F 28.4 °F 87% 29.89 in 7.0 mi West 10.4 mph 18.4 mph N/A   Scattered Clouds
1:54 AM 32.0 °F 23.6 °F 28.4 °F 87% 29.90 in 5.0 mi West 10.4 mph 19.6 mph N/A Snow Light Snow
2:13 AM 32.0 °F 21.2 °F 28.4 °F 87% 29.91 in 10.0 mi West 16.1 mph 20.7 mph N/A   Mostly Cloudy
2:33 AM 32.0 °F 20.8 °F 26.6 °F 80% 29.92 in 10.0 mi West 17.3 mph 24.2 mph N/A   Overcast
2:54 AM 32.0 °F 22.1 °F 26.6 °F 80% 29.93 in 10.0 mi West 13.8 mph 26.5 mph N/A   Overcast
3:33 AM 32.0 °F 21.6 °F 26.6 °F 80% 29.94 in 10.0 mi West 15.0 mph 25.3 mph N/A   Overcast
3:53 AM 32.0 °F 22.5 °F 26.6 °F 80% 29.95 in 10.0 mi West 12.7 mph 20.7 mph N/A   Overcast
4:13 AM 32.0 °F 22.1 °F 26.6 °F 80% 29.95 in 10.0 mi West 13.8 mph 20.7 mph N/A   Overcast
4:33 AM 32.0 °F 22.5 °F 26.6 °F 80% 29.96 in 10.0 mi West 12.7 mph 20.7 mph N/A   Overcast
4:53 AM 32.0 °F 20.8 °F 26.6 °F 80% 29.97 in 10.0 mi West 17.3 mph 23.0 mph N/A   Overcast
5:33 AM 30.2 °F 18.9 °F 24.8 °F 80% 29.99 in 10.0 mi West 16.1 mph 24.2 mph N/A   Overcast
5:53 AM 30.2 °F 18.9 °F 24.8 °F 80% 30.00 in 10.0 mi West 16.1 mph 25.3 mph N/A   Overcast
6:13 AM 30.2 °F 21.9 °F 24.8 °F 80% 30.01 in 10.0 mi West 9.2 mph 18.4 mph N/A   Overcast
6:33 AM 30.2 °F 19.3 °F 24.8 °F 80% 30.01 in 10.0 mi West 15.0 mph 27.6 mph N/A   Overcast
6:54 AM 30.2 °F 18.5 °F 24.8 °F 80% 30.03 in 10.0 mi West 17.3 mph 24.2 mph N/A   Overcast
7:13 AM 30.2 °F 19.3 °F 24.8 °F 80% 30.03 in 10.0 mi West 15.0 mph 20.7 mph N/A   Overcast
7:33 AM 30.2 °F 19.8 °F 24.8 °F 80% 30.04 in 10.0 mi West 13.8 mph 23.0 mph N/A   Overcast
7:53 AM 30.2 °F 18.5 °F 21.2 °F 69% 30.05 in 10.0 mi West 17.3 mph 23.0 mph N/A   Overcast
8:13 AM 30.2 °F 19.8 °F 23.0 °F 75% 30.05 in 10.0 mi West 13.8 mph 19.6 mph N/A   Overcast
8:33 AM 30.2 °F 21.9 °F 23.0 °F 75% 30.06 in 10.0 mi West 9.2 mph 20.7 mph N/A   Mostly Cloudy
8:53 AM 30.2 °F 21.9 °F 23.0 °F 75% 30.07 in 10.0 mi West 9.2 mph 19.6 mph N/A   Mostly Cloudy
9:13 AM 30.2 °F 21.3 °F 23.0 °F 75% 30.08 in 10.0 mi West 10.4 mph 19.6 mph N/A   Overcast
9:33 AM 30.2 °F 23.4 °F 23.0 °F 75% 30.09 in 10.0 mi West 6.9 mph 19.6 mph N/A   Overcast
9:53 AM 30.2 °F 20.2 °F 23.0 °F 75% 30.09 in 10.0 mi West 12.7 mph 23.0 mph N/A   Overcast
10:13 AM 30.2 °F 20.8 °F 23.0 °F 75% 30.09 in 10.0 mi West 11.5 mph 20.7 mph N/A   Overcast
10:33 AM 30.2 °F 21.3 °F 23.0 °F 75% 30.10 in 10.0 mi West 10.4 mph 19.6 mph N/A   Overcast
10:53 AM 30.2 °F 19.3 °F 23.0 °F 75% 30.11 in 10.0 mi West 15.0 mph 19.6 mph N/A   Overcast
11:13 AM 32.0 °F 21.6 °F 23.0 °F 69% 30.11 in 10.0 mi West 15.0 mph 21.9 mph N/A   Overcast
11:33 AM 32.0 °F 22.1 °F 21.2 °F 64% 30.12 in 10.0 mi WSW 13.8 mph 24.2 mph N/A   Overcast
11:53 AM 30.2 °F 21.3 °F 21.2 °F 69% 30.13 in 10.0 mi West 10.4 mph 20.7 mph N/A   Overcast
12:13 PM 30.2 °F 23.4 °F 21.2 °F 69% 30.13 in 10.0 mi West 6.9 mph 17.3 mph N/A   Overcast
12:33 PM 30.2 °F 18.9 °F 21.2 °F 69% 30.14 in 10.0 mi West 16.1 mph 25.3 mph N/A   Overcast
12:53 PM 30.2 °F 19.8 °F 21.2 °F 69% 30.14 in 10.0 mi West 13.8 mph 20.7 mph N/A   Overcast
1:13 PM 30.2 °F 20.2 °F 21.2 °F 69% 30.14 in 10.0 mi West 12.7 mph 19.6 mph N/A   Overcast
1:33 PM 30.2 °F 23.4 °F 21.2 °F 69% 30.14 in 10.0 mi WSW 6.9 mph 17.3 mph N/A   Overcast
1:53 PM 30.2 °F 21.3 °F 21.2 °F 69% 30.14 in 10.0 mi West 10.4 mph 18.4 mph N/A   Overcast
2:13 PM 30.2 °F 20.2 °F 21.2 °F 69% 30.15 in 10.0 mi WSW 12.7 mph 17.3 mph N/A   Overcast
2:34 PM 30.2 °F 20.8 °F 19.4 °F 64% 30.15 in 10.0 mi West 11.5 mph 17.3 mph N/A   Overcast
2:53 PM 30.2 °F 20.2 °F 19.4 °F 64% 30.15 in 10.0 mi West 12.7 mph 18.4 mph N/A   Overcast
3:14 PM 30.2 °F 19.8 °F 21.2 °F 69% 30.15 in 10.0 mi West 13.8 mph 17.3 mph N/A   Overcast
3:33 PM 30.2 °F 23.4 °F 21.2 °F 69% 30.15 in 10.0 mi WSW 6.9 mph - N/A   Overcast
3:53 PM 30.2 °F 21.9 °F 21.2 °F 69% 30.15 in 7.0 mi WSW 9.2 mph - N/A   Overcast
4:13 PM 30.2 °F 23.4 °F 21.2 °F 69% 30.15 in 7.0 mi WSW 6.9 mph - N/A Snow Light Snow
4:34 PM 30.2 °F 20.8 °F 21.2 °F 69% 30.15 in 10.0 mi WSW 11.5 mph 17.3 mph N/A   Mostly Cloudy
4:53 PM 30.2 °F 23.4 °F 24.8 °F 80% 30.16 in 2.5 mi SW 6.9 mph - N/A Snow Light Snow
5:13 PM 28.4 °F 23.3 °F 24.8 °F 86% 30.16 in 10.0 mi West 4.6 mph - N/A Snow Light Snow
5:33 PM 28.4 °F - 24.8 °F 86% 30.16 in 10.0 mi Calm Calm - N/A   Mostly Cloudy
5:53 PM 28.4 °F 22.2 °F 24.8 °F 86% 30.17 in 10.0 mi WSW 5.8 mph - N/A   Overcast
6:13 PM 30.2 °F 21.9 °F 24.8 °F 80% 30.18 in 10.0 mi West 9.2 mph 16.1 mph N/A Snow Light Snow
6:33 PM 28.4 °F 19.1 °F 23.0 °F 80% 30.18 in 10.0 mi WSW 10.4 mph - N/A Snow Light Snow
6:53 PM 28.4 °F 21.2 °F 23.0 °F 80% 30.19 in 10.0 mi WSW 6.9 mph - N/A   Overcast
7:13 PM 28.4 °F 20.4 °F 23.0 °F 80% 30.19 in 10.0 mi West 8.1 mph - N/A Snow Light Snow
7:33 PM 28.4 °F 20.4 °F 21.2 °F 74% 30.19 in 10.0 mi West 8.1 mph - N/A Snow Light Snow
7:53 PM 28.4 °F 23.3 °F 23.0 °F 80% 30.19 in 10.0 mi West 4.6 mph - N/A   Overcast
8:13 PM 28.4 °F 23.3 °F 21.2 °F 74% 30.19 in 10.0 mi WSW 4.6 mph - N/A   Overcast
8:33 PM 28.4 °F - 21.2 °F 74% 30.19 in 10.0 mi Calm Calm - N/A   Overcast
8:53 PM 28.4 °F 24.6 °F 21.2 °F 74% 30.19 in 10.0 mi SW 3.5 mph - N/A   Overcast
9:13 PM 28.4 °F 24.6 °F 21.2 °F 74% 30.19 in 10.0 mi SW 3.5 mph - N/A   Overcast
9:33 PM 28.4 °F 23.3 °F 21.2 °F 74% 30.19 in 10.0 mi SW 4.6 mph - N/A   Overcast
10:33 PM 26.6 °F - 21.2 °F 80% 30.19 in 10.0 mi Calm Calm - N/A   Clear
10:53 PM 24.8 °F - 19.4 °F 80% 30.19 in 10.0 mi Calm Calm - N/A   Clear
11:13 PM 24.8 °F - 19.4 °F 80% 30.19 in 10.0 mi Calm Calm - N/A   Scattered Clouds
11:33 PM 24.8 °F - 19.4 °F 80% 30.19 in 10.0 mi Calm Calm - N/A   Clear
11:53 PM 24.8 °F - 19.4 °F 80% 30.18 in 10.0 mi Calm Calm - N/A   Scattered Clouds